Time;durP1;ratioP1;P1;durP2;ratioP2;P2;SDS_P1;SDS_P2;PMS_P1;PMS_P2;Temp;Humidity;BMP_temperature;BMP_pressure;BME280_temperature;BME280_humidity;BME280_pressure;Samples;Min_cycle;Max_cycle;Signal;HPM_P1;HPM_P2
2023/12/23 00:00:48;;;;;;;3.83;1.60;;;;;;;;;;5026859;28;20182;-59
2023/12/23 00:03:14;;;;;;;5.93;1.43;;;;;;;;;;5014414;28;20425;-59
2023/12/23 00:05:42;;;;;;;4.07;1.47;;;;;;;;;;5021074;28;20262;-59
2023/12/23 00:08:08;;;;;;;3.60;1.30;;;;;;;;;;5016334;28;20699;-59
2023/12/23 00:10:34;;;;;;;3.37;1.27;;;;;;;;;;5023587;28;20229;-59
2023/12/23 00:13:00;;;;;;;2.27;1.20;;;;;;;;;;5028060;28;20296;-58
2023/12/23 00:15:26;;;;;;;2.53;1.40;;;;;;;;;;5028665;28;20225;-58
2023/12/23 00:17:52;;;;;;;3.27;1.30;;;;;;;;;;5022004;28;20261;-59
2023/12/23 00:20:18;;;;;;;7.03;1.70;;;;;;;;;;5025889;28;20602;-59
2023/12/23 00:22:44;;;;;;;5.03;1.60;;;;;;;;;;5023008;28;20541;-57
2023/12/23 00:25:10;;;;;;;2.57;1.20;;;;;;;;;;5026326;28;20174;-59
2023/12/23 00:27:36;;;;;;;10.43;1.80;;;;;;;;;;5026667;28;20178;-59
2023/12/23 00:30:02;;;;;;;4.83;1.50;;;;;;;;;;5019114;28;20179;-59
2023/12/23 00:32:28;;;;;;;4.60;1.23;;;;;;;;;;5027190;28;20178;-59
2023/12/23 00:34:54;;;;;;;2.70;1.40;;;;;;;;;;5022935;28;20197;-59
2023/12/23 00:37:20;;;;;;;4.80;1.57;;;;;;;;;;5021518;28;20174;-59
2023/12/23 00:39:46;;;;;;;7.43;1.77;;;;;;;;;;5019989;28;20202;-59
2023/12/23 00:42:12;;;;;;;3.40;2.20;;;;;;;;;;5024387;28;20634;-59
2023/12/23 00:44:38;;;;;;;11.73;2.30;;;;;;;;;;5028062;28;20182;-59
2023/12/23 00:47:04;;;;;;;4.60;1.47;;;;;;;;;;5026290;28;20185;-59
2023/12/23 00:49:30;;;;;;;6.73;1.83;;;;;;;;;;5032463;28;20204;-59
2023/12/23 00:51:56;;;;;;;7.57;1.77;;;;;;;;;;5028401;28;20182;-59
2023/12/23 00:54:23;;;;;;;3.97;1.30;;;;;;;;;;5027696;28;20186;-60
2023/12/23 00:56:49;;;;;;;4.63;1.43;;;;;;;;;;5024947;28;20197;-58
2023/12/23 00:59:15;;;;;;;3.70;1.63;;;;;;;;;;5024688;28;20185;-58
2023/12/23 01:01:44;;;;;;;5.60;1.40;;;;;;;;;;5012532;28;20183;-59
2023/12/23 01:04:10;;;;;;;5.90;2.30;;;;;;;;;;5022952;28;20193;-59
2023/12/23 01:06:36;;;;;;;8.70;2.00;;;;;;;;;;5031069;28;20174;-59
2023/12/23 01:09:02;;;;;;;3.87;1.60;;;;;;;;;;5029255;28;20240;-59
2023/12/23 01:11:28;;;;;;;5.37;1.50;;;;;;;;;;5026194;28;20181;-56
2023/12/23 01:13:54;;;;;;;4.10;1.40;;;;;;;;;;5029093;28;20614;-56
2023/12/23 01:16:20;;;;;;;;;;;;;;;;;;5028028;28;20728;-56
2023/12/23 01:18:46;;;;;;;4.33;2.00;;;;;;;;;;5029130;28;20043;-56
2023/12/23 01:21:12;;;;;;;5.77;1.43;;;;;;;;;;5026451;28;20189;-55
2023/12/23 01:23:38;;;;;;;5.25;1.55;;;;;;;;;;5005107;28;20232;-56
2023/12/23 01:26:04;;;;;;;;;;;;;;;;;;5026147;28;20403;-56
2023/12/23 01:28:30;;;;;;;;;;;;;;;;;;5028625;28;19913;-56
2023/12/23 01:30:56;;;;;;;3.90;2.03;;;;;;;;;;5028835;28;20805;-55
2023/12/23 01:33:22;;;;;;;3.93;1.77;;;;;;;;;;5029775;28;20182;-56
2023/12/23 01:35:48;;;;;;;2.97;1.80;;;;;;;;;;5031086;28;20275;-57
2023/12/23 01:38:14;;;;;;;;;;;;;;;;;;5018128;28;20646;-56
2023/12/23 01:40:40;;;;;;;;;;;;;;;;;;5029736;28;19952;-56
2023/12/23 01:43:06;;;;;;;;;;;;;;;;;;5030757;28;19952;-56
2023/12/23 01:45:33;;;;;;;;;;;;;;;;;;5030000;28;19923;-56
2023/12/23 01:48:00;;;;;;;;;;;;;;;;;;5028841;28;20490;-56
2023/12/23 01:50:26;;;;;;;;;;;;;;;;;;5014125;28;20001;-57
2023/12/23 01:52:53;;;;;;;2.55;1.40;;;;;;;;;;5016831;28;20004;-56
2023/12/23 01:55:19;;;;;;;2.37;1.27;;;;;;;;;;5019621;28;20205;-56
2023/12/23 01:57:45;;;;;;;5.90;1.73;;;;;;;;;;5030766;28;20192;-57
2023/12/23 02:00:11;;;;;;;;;;;;;;;;;;5029941;28;20185;-56
2023/12/23 02:02:40;;;;;;;4.17;1.30;;;;;;;;;;5029352;28;20036;-56
2023/12/23 02:05:06;;;;;;;1.53;1.20;;;;;;;;;;5030910;28;20701;-56
2023/12/23 02:07:33;;;;;;;1.60;1.00;;;;;;;;;;5024663;28;20181;-56
2023/12/23 02:09:58;;;;;;;;;;;;;;;;;;5028609;28;20132;-55
2023/12/23 02:12:24;;;;;;;;;;;;;;;;;;5022682;28;20054;-56
2023/12/23 02:14:51;;;;;;;;;;;;;;;;;;5027380;28;19964;-56
2023/12/23 02:17:16;;;;;;;;;;;;;;;;;;5029402;28;20400;-57
2023/12/23 02:19:42;;;;;;;;;;;;;;;;;;5023611;28;19945;-56
2023/12/23 02:22:08;;;;;;;;;;;;;;;;;;5022957;28;20561;-56
2023/12/23 02:24:34;;;;;;;;;;;;;;;;;;5020897;28;19963;-55
2023/12/23 02:27:00;;;;;;;;;;;;;;;;;;5019953;28;20249;-57
2023/12/23 02:29:26;;;;;;;;;;;;;;;;;;5025135;28;20028;-56
2023/12/23 02:31:52;;;;;;;;;;;;;;;;;;5028979;28;20554;-56
2023/12/23 02:34:18;;;;;;;;;;;;;;;;;;5029803;28;19956;-55
2023/12/23 02:36:44;;;;;;;;;;;;;;;;;;5026200;28;19960;-55
2023/12/23 02:39:10;;;;;;;;;;;;;;;;;;5029854;28;19944;-55
2023/12/23 02:41:36;;;;;;;;;;;;;;;;;;5028542;28;20234;-56
2023/12/23 02:44:02;;;;;;;;;;;;;;;;;;5028595;28;19913;-56
2023/12/23 02:46:28;;;;;;;;;;;;;;;;;;5027307;28;19960;-55
2023/12/23 02:48:54;;;;;;;;;;;;;;;;;;5027844;28;19944;-55
2023/12/23 02:51:20;;;;;;;;;;;;;;;;;;5028031;28;19940;-55
2023/12/23 02:53:45;;;;;;;;;;;;;;;;;;5029377;28;19944;-56
2023/12/23 02:56:11;;;;;;;;;;;;;;;;;;5027766;28;19944;-55
2023/12/23 02:58:37;;;;;;;;;;;;;;;;;;5028339;28;19964;-55
2023/12/23 03:01:06;;;;;;;;;;;;;;;;;;5026847;28;19956;-55
2023/12/23 03:03:32;;;;;;;;;;;;;;;;;;5027164;28;20011;-55
2023/12/23 03:05:58;;;;;;;;;;;;;;;;;;5024839;28;20000;-55
2023/12/23 03:08:24;;;;;;;;;;;;;;;;;;5020655;28;19987;-55
2023/12/23 03:10:50;;;;;;;;;;;;;;;;;;5019708;28;19955;-54
2023/12/23 03:13:16;;;;;;;;;;;;;;;;;;5023942;28;20002;-55
2023/12/23 03:15:42;;;;;;;;;;;;;;;;;;5028824;28;20034;-56
2023/12/23 03:18:08;;;;;;;;;;;;;;;;;;5026776;28;20379;-55
2023/12/23 03:20:34;;;;;;;;;;;;;;;;;;5028342;28;19967;-55
2023/12/23 03:23:00;;;;;;;;;;;;;;;;;;5027868;28;19959;-55
2023/12/23 03:25:26;;;;;;;;;;;;;;;;;;5027401;28;20478;-56
2023/12/23 03:27:52;;;;;;;;;;;;;;;;;;5027994;28;19956;-55
2023/12/23 03:30:18;;;;;;;;;;;;;;;;;;5021961;28;20024;-54
2023/12/23 03:32:44;;;;;;;;;;;;;;;;;;5024246;28;19952;-55
2023/12/23 03:35:09;;;;;;;;;;;;;;;;;;5028694;28;19952;-55
2023/12/23 03:37:35;;;;;;;;;;;;;;;;;;5027108;28;19952;-57
2023/12/23 03:40:01;;;;;;;;;;;;;;;;;;5027539;28;20001;-55
2023/12/23 03:42:27;;;;;;;;;;;;;;;;;;5027320;28;19944;-56
2023/12/23 03:44:53;;;;;;;;;;;;;;;;;;5028629;28;19948;-55
2023/12/23 03:47:19;;;;;;;;;;;;;;;;;;5027170;28;19952;-55
2023/12/23 03:49:45;;;;;;;;;;;;;;;;;;5028941;28;19971;-55
2023/12/23 03:52:12;;;;;;;;;;;;;;;;;;5027830;28;19956;-55
2023/12/23 03:54:38;;;;;;;;;;;;;;;;;;5026620;28;20376;-55
2023/12/23 03:57:03;;;;;;;;;;;;;;;;;;5027481;28;19944;-55
2023/12/23 03:59:29;;;;;;;;;;;;;;;;;;5028174;28;20006;-55
2023/12/23 04:01:55;;;;;;;;;;;;;;;;;;5021532;28;20357;-56
2023/12/23 04:04:21;;;;;;;;;;;;;;;;;;5024493;28;20003;-55
2023/12/23 04:06:47;;;;;;;;;;;;;;;;;;5027767;28;20234;-54
2023/12/23 04:09:13;;;;;;;;;;;;;;;;;;5027806;28;19948;-55
2023/12/23 04:11:40;;;;;;;;;;;;;;;;;;5027035;28;19948;-55
2023/12/23 04:14:06;;;;;;;;;;;;;;;;;;5027381;28;20368;-56
2023/12/23 04:16:31;;;;;;;;;;;;;;;;;;5027420;28;19917;-55
2023/12/23 04:18:57;;;;;;;;;;;;;;;;;;5026458;28;20523;-55
2023/12/23 04:21:23;;;;;;;;;;;;;;;;;;5028553;28;20344;-54
2023/12/23 04:23:49;;;;;;;;;;;;;;;;;;5027769;28;20352;-56
2023/12/23 04:26:15;;;;;;;;;;;;;;;;;;5026831;28;20018;-54
2023/12/23 04:28:41;;;;;;;;;;;;;;;;;;5024677;28;19960;-56
2023/12/23 04:31:07;;;;;;;;;;;;;;;;;;5018692;28;20400;-54
2023/12/23 04:33:34;;;;;;;;;;;;;;;;;;5025172;28;20526;-55
2023/12/23 04:36:00;;;;;;;;;;;;;;;;;;5021002;28;19948;-55
2023/12/23 04:38:26;;;;;;;;;;;;;;;;;;5028250;28;19948;-56
2023/12/23 04:40:52;;;;;;;;;;;;;;;;;;5031693;28;19944;-55
2023/12/23 04:43:18;;;;;;;;;;;;;;;;;;5031151;28;19967;-57
2023/12/23 04:45:44;;;;;;;;;;;;;;;;;;5032480;28;20403;-56
2023/12/23 04:48:10;;;;;;;;;;;;;;;;;;5030313;28;19909;-56
2023/12/23 04:50:36;;;;;;;;;;;;;;;;;;5030594;28;20008;-57
2023/12/23 04:53:02;;;;;;;;;;;;;;;;;;5032773;28;20455;-56
2023/12/23 04:55:28;;;;;;;;;;;;;;;;;;5026949;28;19963;-56
2023/12/23 04:57:54;;;;;;;;;;;;;;;;;;5031823;28;20377;-56
2023/12/23 05:00:20;;;;;;;;;;;;;;;;;;5024799;28;20403;-57
2023/12/23 05:02:46;;;;;;;;;;;;;;;;;;5029058;28;20348;-57
2023/12/23 05:05:12;;;;;;;;;;;;;;;;;;5032459;28;19959;-57
2023/12/23 05:07:38;;;;;;;;;;;;;;;;;;5025691;28;19913;-56
2023/12/23 05:10:04;;;;;;;;;;;;;;;;;;5017763;28;19960;-56
2023/12/23 05:12:30;;;;;;;;;;;;;;;;;;5030984;28;19956;-56
2023/12/23 05:14:56;;;;;;;;;;;;;;;;;;5031534;28;19990;-56
2023/12/23 05:17:22;;;;;;;;;;;;;;;;;;5026069;28;20034;-56
2023/12/23 05:19:48;;;;;;;;;;;;;;;;;;5028209;28;19908;-56
2023/12/23 05:22:13;;;;;;;;;;;;;;;;;;5023913;28;19956;-57
2023/12/23 05:24:42;;;;;;;;;;;;;;;;;;5029723;28;19984;-56
2023/12/23 05:27:08;;;;;;;;;;;;;;;;;;5027168;28;19959;-56
2023/12/23 05:29:34;;;;;;;;;;;;;;;;;;5026593;28;19913;-57
2023/12/23 05:32:03;;;;;;;;;;;;;;;;;;5024581;28;20309;-56
2023/12/23 05:34:29;;;;;;;;;;;;;;;;;;5026153;28;19917;-56
2023/12/23 05:36:55;;;;;;;;;;;;;;;;;;5029750;28;19963;-57
2023/12/23 05:39:20;;;;;;;;;;;;;;;;;;5029699;28;19948;-57
2023/12/23 05:41:46;;;;;;;;;;;;;;;;;;5030305;28;19979;-56
2023/12/23 05:44:12;;;;;;;;;;;;;;;;;;5030676;28;20304;-56
2023/12/23 05:46:38;;;;;;;;;;;;;;;;;;5030604;28;20049;-56
2023/12/23 05:49:04;;;;;;;;;;;;;;;;;;5029986;28;19947;-56
2023/12/23 05:51:30;;;;;;;;;;;;;;;;;;5029312;28;19948;-56
2023/12/23 05:53:56;;;;;;;;;;;;;;;;;;5030757;28;20361;-56
2023/12/23 05:56:22;;;;;;;;;;;;;;;;;;5029745;28;20364;-56
2023/12/23 05:58:48;;;;;;;;;;;;;;;;;;5031387;28;20047;-56
2023/12/23 06:01:14;;;;;;;;;;;;;;;;;;5029537;28;19953;-57
2023/12/23 06:03:40;;;;;;;;;;;;;;;;;;5025724;28;19917;-56
2023/12/23 06:06:06;;;;;;;;;;;;;;;;;;5031052;28;20055;-56
2023/12/23 06:08:32;;;;;;;;;;;;;;;;;;5026778;28;19937;-56
2023/12/23 06:10:58;;;;;;;;;;;;;;;;;;5028043;28;20058;-56
2023/12/23 06:13:25;;;;;;;;;;;;;;;;;;5023635;28;19952;-57
2023/12/23 06:15:51;;;;;;;;;;;;;;;;;;5019554;28;19921;-57
2023/12/23 06:18:17;;;;;;;;;;;;;;;;;;5017124;28;19956;-57
2023/12/23 06:20:43;;;;;;;;;;;;;;;;;;5027488;28;19941;-57
2023/12/23 06:23:08;;;;;;;;;;;;;;;;;;5012415;28;19963;-57
2023/12/23 06:25:34;;;;;;;;;;;;;;;;;;5030953;28;19968;-58
2023/12/23 06:28:00;;;;;;;;;;;;;;;;;;5026679;28;19952;-56
2023/12/23 06:30:26;;;;;;;;;;;;;;;;;;5012889;28;19948;-56
2023/12/23 06:32:52;;;;;;;;;;;;;;;;;;5023913;28;19967;-57
2023/12/23 06:35:20;;;;;;;;;;;;;;;;;;5029087;28;20387;-56
2023/12/23 06:37:46;;;;;;;;;;;;;;;;;;5024100;28;19913;-58
2023/12/23 06:40:11;;;;;;;;;;;;;;;;;;5026946;28;20379;-56
2023/12/23 06:42:37;;;;;;;;;;;;;;;;;;5029888;28;20403;-56
2023/12/23 06:45:03;;;;;;;;;;;;;;;;;;5027282;28;19956;-56
2023/12/23 06:47:29;;;;;;;;;;;;;;;;;;5028124;28;20025;-56
2023/12/23 06:49:55;;;;;;;;;;;;;;;;;;5029433;28;20472;-57
2023/12/23 06:52:21;;;;;;;;;;;;;;;;;;5029435;28;20369;-56
2023/12/23 06:54:47;;;;;;;;;;;;;;;;;;5026593;28;19936;-57
2023/12/23 06:57:13;;;;;;;;;;;;;;;;;;5029492;28;20340;-57
2023/12/23 06:59:39;;;;;;;6.37;3.87;;;;;;;;;;5029293;28;20391;-57
2023/12/23 07:02:05;;;;;;;7.93;3.70;;;;;;;;;;5018755;28;20189;-56
2023/12/23 07:04:31;;;;;;;6.57;3.53;;;;;;;;;;5016241;28;20516;-55
2023/12/23 07:06:58;;;;;;;6.90;3.80;;;;;;;;;;5028373;28;20178;-56
2023/12/23 07:09:24;;;;;;;5.07;3.63;;;;;;;;;;5024316;28;20178;-56
2023/12/23 07:11:50;;;;;;;8.03;3.47;;;;;;;;;;5027641;28;20186;-55
2023/12/23 07:14:16;;;;;;;11.13;4.60;;;;;;;;;;5024197;28;20259;-56
2023/12/23 07:16:43;;;;;;;6.43;3.63;;;;;;;;;;5021198;28;20225;-56
2023/12/23 07:19:09;;;;;;;6.13;3.70;;;;;;;;;;5027674;28;20296;-55
2023/12/23 07:21:35;;;;;;;7.23;3.60;;;;;;;;;;5026461;28;20232;-56
2023/12/23 07:24:01;;;;;;;7.63;4.07;;;;;;;;;;5027426;28;20182;-55
2023/12/23 07:26:27;;;;;;;7.37;3.30;;;;;;;;;;5027634;28;20610;-56
2023/12/23 07:28:53;;;;;;;6.30;3.57;;;;;;;;;;5028921;28;20272;-55
2023/12/23 07:31:19;;;;;;;3.73;3.07;;;;;;;;;;5028337;28;20606;-54
2023/12/23 07:33:46;;;;;;;7.67;3.77;;;;;;;;;;5025647;28;20268;-56
2023/12/23 07:36:12;;;;;;;7.37;3.73;;;;;;;;;;5027580;28;20213;-55
2023/12/23 07:38:38;;;;;;;8.70;3.53;;;;;;;;;;5024635;28;20185;-55
2023/12/23 07:41:07;;;;;;;7.97;3.97;;;;;;;;;;5025201;28;20580;-56
2023/12/23 07:43:33;;;;;;;4.47;3.47;;;;;;;;;;5026514;28;20692;-56
2023/12/23 07:45:59;;;;;;;7.13;3.83;;;;;;;;;;5026266;28;20256;-55
2023/12/23 07:48:25;;;;;;;7.90;3.67;;;;;;;;;;5015329;28;20182;-55
2023/12/23 07:50:51;;;;;;;6.97;4.30;;;;;;;;;;5028375;28;20625;-56
2023/12/23 07:53:17;;;;;;;6.00;2.90;;;;;;;;;;5023793;28;20264;-57
2023/12/23 07:55:43;;;;;;;7.13;3.30;;;;;;;;;;5028218;28;20312;-55
2023/12/23 07:58:09;;;;;;;5.13;3.50;;;;;;;;;;5013757;28;20251;-55
2023/12/23 08:00:35;;;;;;;5.93;3.90;;;;;;;;;;5025114;28;20569;-55
2023/12/23 08:03:01;;;;;;;5.77;3.43;;;;;;;;;;5020851;28;20194;-56
2023/12/23 08:05:31;;;;;;;9.13;4.20;;;;;;;;;;5027065;28;20185;-56
2023/12/23 08:07:58;;;;;;;5.87;3.10;;;;;;;;;;5028135;28;20184;-55
2023/12/23 08:10:24;;;;;;;5.10;3.33;;;;;;;;;;5019138;28;20257;-55
2023/12/23 08:12:50;;;;;;;6.43;3.93;;;;;;;;;;5023956;28;20292;-56
2023/12/23 08:15:16;;;;;;;5.83;3.60;;;;;;;;;;5031098;28;20233;-56
2023/12/23 08:17:42;;;;;;;4.27;3.20;;;;;;;;;;5025408;28;20198;-56
2023/12/23 08:20:08;;;;;;;6.00;3.83;;;;;;;;;;5024018;28;20196;-54
2023/12/23 08:22:34;;;;;;;6.20;3.57;;;;;;;;;;5030891;28;20182;-57
2023/12/23 08:25:01;;;;;;;6.53;3.20;;;;;;;;;;5032702;28;20587;-56
2023/12/23 08:27:27;;;;;;;6.47;3.33;;;;;;;;;;5028228;28;20635;-55
2023/12/23 08:29:53;;;;;;;4.43;3.30;;;;;;;;;;5031656;28;20301;-57
2023/12/23 08:32:19;;;;;;;4.20;3.20;;;;;;;;;;5025804;28;20228;-54
2023/12/23 08:34:48;;;;;;;8.67;3.40;;;;;;;;;;5027936;28;20610;-55
2023/12/23 08:37:14;;;;;;;5.40;3.00;;;;;;;;;;5023762;28;20185;-55
2023/12/23 08:39:40;;;;;;;8.53;3.43;;;;;;;;;;5030829;28;20238;-55
2023/12/23 08:42:06;;;;;;;6.50;3.50;;;;;;;;;;5029994;28;20181;-55
2023/12/23 08:44:32;;;;;;;6.73;3.67;;;;;;;;;;5028124;28;20189;-55
2023/12/23 08:46:58;;;;;;;7.90;3.47;;;;;;;;;;5027103;28;20953;-56
2023/12/23 08:49:24;;;;;;;6.77;3.37;;;;;;;;;;5022351;28;20281;-55
2023/12/23 08:51:50;;;;;;;7.27;3.90;;;;;;;;;;5031764;28;20209;-56
2023/12/23 08:54:16;;;;;;;10.17;3.57;;;;;;;;;;5008967;28;20357;-56
2023/12/23 08:56:42;;;;;;;8.43;3.50;;;;;;;;;;5030119;28;20240;-55
2023/12/23 08:59:08;;;;;;;7.93;3.77;;;;;;;;;;5028109;28;20674;-56
2023/12/23 09:01:34;;;;;;;8.10;3.80;;;;;;;;;;5026124;28;20300;-56
2023/12/23 09:04:00;;;;;;;6.27;3.03;;;;;;;;;;5020389;28;20183;-56
2023/12/23 09:06:26;;;;;;;5.93;2.90;;;;;;;;;;5024042;28;20236;-55
2023/12/23 09:08:54;;;;;;;4.50;2.97;;;;;;;;;;5027097;28;20178;-56
2023/12/23 09:11:20;;;;;;;8.23;3.37;;;;;;;;;;5030799;28;20588;-56
2023/12/23 09:13:46;;;;;;;6.80;2.87;;;;;;;;;;5029449;28;20623;-56
2023/12/23 09:16:12;;;;;;;7.73;2.37;;;;;;;;;;5019638;28;20226;-56
2023/12/23 09:18:38;;;;;;;4.80;2.70;;;;;;;;;;5023177;28;20181;-56
2023/12/23 09:21:04;;;;;;;4.47;2.50;;;;;;;;;;5024966;28;20178;-58
2023/12/23 09:23:30;;;;;;;12.13;3.30;;;;;;;;;;5031123;28;20208;-57
2023/12/23 09:25:56;;;;;;;6.33;2.47;;;;;;;;;;5028528;28;20633;-57
2023/12/23 09:28:22;;;;;;;3.83;2.57;;;;;;;;;;5024954;28;20214;-57
2023/12/23 09:30:48;;;;;;;6.17;2.50;;;;;;;;;;5026579;28;20614;-57
2023/12/23 09:33:14;;;;;;;8.67;3.43;;;;;;;;;;5028898;28;20171;-56
2023/12/23 09:35:40;;;;;;;3.63;2.20;;;;;;;;;;5023827;28;20469;-56
2023/12/23 09:38:06;;;;;;;9.93;3.67;;;;;;;;;;5031114;28;20196;-56
2023/12/23 09:40:32;;;;;;;8.33;2.33;;;;;;;;;;5029477;28;20637;-56
2023/12/23 09:42:59;;;;;;;7.73;2.23;;;;;;;;;;5023048;28;20190;-56
2023/12/23 09:45:26;;;;;;;5.20;2.30;;;;;;;;;;5028670;28;20277;-56
2023/12/23 09:47:52;;;;;;;4.50;2.03;;;;;;;;;;5024256;28;20178;-56
2023/12/23 09:50:18;;;;;;;7.97;2.57;;;;;;;;;;5023070;28;20273;-57
2023/12/23 09:52:45;;;;;;;6.30;2.30;;;;;;;;;;5028006;28;20281;-56
2023/12/23 09:55:11;;;;;;;2.77;2.23;;;;;;;;;;5027480;28;20209;-57
2023/12/23 09:57:37;;;;;;;3.47;2.20;;;;;;;;;;5029410;28;20213;-57
2023/12/23 10:00:04;;;;;;;6.80;2.20;;;;;;;;;;5030063;28;20848;-57
2023/12/23 10:02:30;;;;;;;7.97;2.67;;;;;;;;;;5018355;28;20603;-57
2023/12/23 10:04:56;;;;;;;7.17;2.33;;;;;;;;;;5027562;28;20227;-57
2023/12/23 10:07:22;;;;;;;6.23;1.97;;;;;;;;;;5020093;28;20239;-57
2023/12/23 10:09:49;;;;;;;4.23;2.00;;;;;;;;;;5024665;28;20640;-57
2023/12/23 10:12:16;;;;;;;5.33;2.17;;;;;;;;;;5020563;28;20268;-57
2023/12/23 10:14:43;;;;;;;4.53;2.00;;;;;;;;;;5025184;28;20201;-59
2023/12/23 10:17:09;;;;;;;2.80;2.03;;;;;;;;;;5019203;28;20238;-57
2023/12/23 10:19:35;;;;;;;7.87;1.93;;;;;;;;;;5020425;28;20186;-57
2023/12/23 10:22:02;;;;;;;2.07;1.73;;;;;;;;;;5028152;28;20522;-58
2023/12/23 10:24:28;;;;;;;4.20;1.90;;;;;;;;;;5027201;28;20209;-57
2023/12/23 10:26:54;;;;;;;4.90;1.77;;;;;;;;;;5023850;28;20197;-57
2023/12/23 10:29:20;;;;;;;3.67;1.77;;;;;;;;;;5028605;28;20185;-57
2023/12/23 10:31:50;;;;;;;3.47;1.90;;;;;;;;;;5019960;28;20201;-59
2023/12/23 10:34:18;;;;;;;3.90;2.50;;;;;;;;;;5021656;28;20660;-59
2023/12/23 10:36:44;;;;;;;8.40;3.13;;;;;;;;;;5026597;28;20220;-59
2023/12/23 10:39:17;;;;;;;5.40;2.40;;;;;;;;;;5013427;28;20756;-59
2023/12/23 10:41:56;;;;;;;5.60;2.37;;;;;;;;;;5021948;28;20648;-59
2023/12/23 10:44:22;;;;;;;5.67;2.23;;;;;;;;;;5025930;28;20307;-60
2023/12/23 10:46:51;;;;;;;3.00;1.90;;;;;;;;;;5024575;28;20208;-59
2023/12/23 10:49:18;;;;;;;4.97;2.23;;;;;;;;;;5019000;28;20178;-58
2023/12/23 10:51:44;;;;;;;4.80;2.30;;;;;;;;;;5025358;28;20649;-59
2023/12/23 10:54:11;;;;;;;7.23;2.37;;;;;;;;;;5027688;28;20713;-59
2023/12/23 10:56:37;;;;;;;7.13;2.40;;;;;;;;;;5027268;28;20201;-59
2023/12/23 10:59:04;;;;;;;5.53;2.17;;;;;;;;;;5029319;28;20178;-59
2023/12/23 11:01:32;;;;;;;4.90;2.90;;;;;;;;;;5028681;28;20182;-59
2023/12/23 11:04:02;;;;;;;4.47;2.30;;;;;;;;;;5028722;28;20663;-59
2023/12/23 11:06:29;;;;;;;5.20;2.30;;;;;;;;;;5028336;28;20680;-59
2023/12/23 11:08:57;;;;;;;6.53;2.63;;;;;;;;;;5029309;28;20173;-59
2023/12/23 11:11:24;;;;;;;5.57;2.20;;;;;;;;;;5028646;28;20189;-59
2023/12/23 11:13:51;;;;;;;4.33;2.73;;;;;;;;;;5026837;28;20214;-59
2023/12/23 11:16:18;;;;;;;4.73;2.43;;;;;;;;;;5025341;28;20681;-59
2023/12/23 11:18:45;;;;;;;3.37;2.60;;;;;;;;;;5009354;28;21645;-59
2023/12/23 11:21:16;;;;;;;5.50;2.50;;;;;;;;;;5028522;28;20644;-59
2023/12/23 11:23:42;;;;;;;7.33;2.90;;;;;;;;;;5028977;28;20170;-59
2023/12/23 11:26:28;;;;;;;5.10;2.90;;;;;;;;;;5029315;28;20174;-59
2023/12/23 11:28:54;;;;;;;6.00;2.87;;;;;;;;;;5024487;28;20193;-59
2023/12/23 11:31:20;;;;;;;8.03;3.80;;;;;;;;;;5028062;28;20190;-59
2023/12/23 11:33:46;;;;;;;5.80;2.60;;;;;;;;;;5027559;28;20190;-59
2023/12/23 11:36:12;;;;;;;5.10;3.63;;;;;;;;;;5028964;28;20672;-59
2023/12/23 11:38:50;;;;;;;5.20;2.93;;;;;;;;;;5026925;28;20209;-59
2023/12/23 11:41:16;;;;;;;6.33;3.30;;;;;;;;;;5028863;28;20166;-58
2023/12/23 11:43:46;;;;;;;5.73;3.27;;;;;;;;;;5027302;28;20189;-60
2023/12/23 11:46:15;;;;;;;5.23;2.77;;;;;;;;;;5028828;28;20173;-60
2023/12/23 11:48:41;;;;;;;3.07;2.60;;;;;;;;;;5026499;28;20200;-60
2023/12/23 11:51:07;;;;;;;3.13;2.83;;;;;;;;;;5028665;28;20656;-60
2023/12/23 11:53:34;;;;;;;3.70;2.20;;;;;;;;;;5028705;28;20188;-59
2023/12/23 11:56:00;;;;;;;6.13;2.93;;;;;;;;;;5029018;28;20194;-60
2023/12/23 11:58:27;;;;;;;6.07;2.70;;;;;;;;;;5021466;28;20188;-60
2023/12/23 12:00:54;;;;;;;4.67;3.27;;;;;;;;;;5027052;28;20185;-60
2023/12/23 12:03:21;;;;;;;10.07;3.10;;;;;;;;;;5025535;28;20189;-60
2023/12/23 12:05:47;;;;;;;7.30;2.37;;;;;;;;;;5026405;28;20189;-60
2023/12/23 12:08:13;;;;;;;5.63;2.00;;;;;;;;;;5024469;28;20213;-60
2023/12/23 12:10:39;;;;;;;6.97;2.73;;;;;;;;;;5028725;28;20189;-60
2023/12/23 12:13:05;;;;;;;5.10;2.70;;;;;;;;;;5020249;28;20210;-61
2023/12/23 12:15:31;;;;;;;4.90;2.27;;;;;;;;;;5025447;28;20252;-59
2023/12/23 12:17:57;;;;;;;9.70;2.57;;;;;;;;;;5016438;28;20634;-60
2023/12/23 12:20:23;;;;;;;4.20;1.90;;;;;;;;;;5022905;28;20276;-60
2023/12/23 12:22:49;;;;;;;7.13;2.27;;;;;;;;;;5022475;28;20197;-60
2023/12/23 12:25:16;;;;;;;4.23;2.23;;;;;;;;;;5025463;28;20645;-60
2023/12/23 12:27:42;;;;;;;6.13;2.50;;;;;;;;;;5026597;28;20277;-60
2023/12/23 12:30:12;;;;;;;3.27;2.27;;;;;;;;;;5026768;28;20180;-60
2023/12/23 12:32:43;;;;;;;5.80;2.13;;;;;;;;;;5024620;28;20595;-61
2023/12/23 12:35:11;;;;;;;6.23;2.73;;;;;;;;;;5027348;28;20524;-60
2023/12/23 12:37:37;;;;;;;5.20;1.90;;;;;;;;;;5013370;28;20496;-60
2023/12/23 12:40:03;;;;;;;4.67;2.70;;;;;;;;;;5027990;28;20276;-61
2023/12/23 12:42:29;;;;;;;6.73;1.97;;;;;;;;;;5023657;28;20185;-60
2023/12/23 12:45:02;;;;;;;3.87;2.20;;;;;;;;;;5027861;28;20790;-60
2023/12/23 12:47:31;;;;;;;3.60;1.70;;;;;;;;;;5025880;28;20197;-60
2023/12/23 12:50:05;;;;;;;3.97;2.00;;;;;;;;;;5024746;28;20193;-60
2023/12/23 12:52:31;;;;;;;3.40;2.20;;;;;;;;;;5023325;28;20201;-61
2023/12/23 12:55:03;;;;;;;4.17;2.00;;;;;;;;;;5024706;28;20272;-57
2023/12/23 12:57:29;;;;;;;5.70;2.30;;;;;;;;;;5022303;28;20667;-57
2023/12/23 12:59:56;;;;;;;5.10;3.03;;;;;;;;;;5024682;28;20204;-57
2023/12/23 13:02:22;;;;;;;3.73;1.93;;;;;;;;;;5029240;28;20213;-56
2023/12/23 13:04:49;;;;;;;4.87;1.63;;;;;;;;;;5028667;28;20208;-57
2023/12/23 13:07:15;;;;;;;3.33;1.90;;;;;;;;;;5023166;28;20186;-59
2023/12/23 13:09:41;;;;;;;3.63;1.73;;;;;;;;;;5026658;28;20190;-57
2023/12/23 13:12:11;;;;;;;4.17;1.90;;;;;;;;;;5026003;28;20185;-59
2023/12/23 13:14:37;;;;;;;2.77;1.80;;;;;;;;;;5027246;28;20205;-57
2023/12/23 13:17:04;;;;;;;4.00;1.70;;;;;;;;;;5028222;28;20750;-57
2023/12/23 13:19:30;;;;;;;4.63;2.00;;;;;;;;;;5030760;28;20189;-56
2023/12/23 13:21:56;;;;;;;3.47;1.93;;;;;;;;;;5031789;28;20280;-56
2023/12/23 13:24:22;;;;;;;4.60;1.87;;;;;;;;;;5027731;28;20174;-56
2023/12/23 13:26:48;;;;;;;6.00;1.70;;;;;;;;;;5024214;28;20189;-57
2023/12/23 13:29:18;;;;;;;4.30;1.80;;;;;;;;;;5025916;28;20174;-56
2023/12/23 13:31:44;;;;;;;5.00;1.90;;;;;;;;;;5025665;28;20187;-58
2023/12/23 13:34:10;;;;;;;5.73;2.07;;;;;;;;;;5029916;28;20182;-60
2023/12/23 13:36:36;;;;;;;5.90;1.60;;;;;;;;;;5025177;28;20611;-57
2023/12/23 13:39:06;;;;;;;2.43;1.37;;;;;;;;;;5022422;28;20498;-57
2023/12/23 13:41:32;;;;;;;4.47;1.37;;;;;;;;;;5027943;28;20276;-57
2023/12/23 13:43:59;;;;;;;4.23;1.80;;;;;;;;;;5029552;28;20197;-56
2023/12/23 13:46:25;;;;;;;6.63;1.70;;;;;;;;;;5027376;28;20193;-57
2023/12/23 13:48:51;;;;;;;4.20;1.70;;;;;;;;;;5022393;28;20273;-56
2023/12/23 13:51:17;;;;;;;5.20;2.20;;;;;;;;;;5028230;28;20189;-58
2023/12/23 13:53:43;;;;;;;7.70;1.73;;;;;;;;;;5026631;28;20236;-56
2023/12/23 13:56:10;;;;;;;4.83;1.80;;;;;;;;;;5027941;28;20346;-58
2023/12/23 13:58:36;;;;;;;6.00;1.90;;;;;;;;;;5025650;28;20188;-57
2023/12/23 14:01:02;;;;;;;2.00;1.70;;;;;;;;;;5023716;28;20281;-57
2023/12/23 14:03:28;;;;;;;2.77;1.87;;;;;;;;;;5026194;28;20182;-57
2023/12/23 14:05:57;;;;;;;2.50;1.63;;;;;;;;;;5027158;28;20300;-58
2023/12/23 14:08:23;;;;;;;7.00;1.77;;;;;;;;;;5026848;28;20182;-57
2023/12/23 14:10:49;;;;;;;3.17;1.60;;;;;;;;;;5023624;28;20184;-57
2023/12/23 14:13:15;;;;;;;5.90;2.20;;;;;;;;;;5019660;28;20665;-56
2023/12/23 14:15:41;;;;;;;4.57;1.97;;;;;;;;;;5022183;28;20229;-58
2023/12/23 14:18:08;;;;;;;2.10;1.73;;;;;;;;;;5028094;28;20181;-56
2023/12/23 14:20:35;;;;;;;2.50;1.30;;;;;;;;;;5046929;28;20185;-56
2023/12/23 14:23:01;;;;;;;6.47;2.03;;;;;;;;;;5050302;28;20173;-57
2023/12/23 14:25:27;;;;;;;2.77;1.50;;;;;;;;;;5049612;28;20688;-56
2023/12/23 14:27:53;;;;;;;3.93;1.67;;;;;;;;;;5050123;28;20616;-56
2023/12/23 14:30:19;;;;;;;4.00;1.43;;;;;;;;;;5050259;28;20177;-57
2023/12/23 14:32:45;;;;;;;3.57;1.80;;;;;;;;;;5049034;28;20165;-57
2023/12/23 14:35:11;;;;;;;4.30;1.50;;;;;;;;;;5050291;28;20209;-57
2023/12/23 14:37:38;;;;;;;8.00;1.80;;;;;;;;;;5049792;28;20161;-56
2023/12/23 14:40:04;;;;;;;4.50;1.60;;;;;;;;;;5050374;28;20169;-56
2023/12/23 14:42:30;;;;;;;5.20;1.70;;;;;;;;;;5049202;28;20487;-56
2023/12/23 14:44:56;;;;;;;1.53;1.40;;;;;;;;;;5029268;28;20285;-56
2023/12/23 14:47:22;;;;;;;1.63;1.23;;;;;;;;;;5027094;28;20213;-57
2023/12/23 14:49:48;;;;;;;3.20;1.30;;;;;;;;;;5028323;28;20157;-56
2023/12/23 14:52:14;;;;;;;4.00;1.50;;;;;;;;;;5029045;28;20158;-56
2023/12/23 14:54:40;;;;;;;3.27;1.30;;;;;;;;;;5029330;28;20162;-57
2023/12/23 14:57:07;;;;;;;2.47;1.70;;;;;;;;;;5029155;28;20281;-56
2023/12/23 14:59:33;;;;;;;3.10;1.80;;;;;;;;;;5029173;28;20178;-56
2023/12/23 15:01:59;;;;;;;2.97;1.30;;;;;;;;;;5028597;28;20501;-56
2023/12/23 15:04:25;;;;;;;2.70;1.50;;;;;;;;;;5028707;28;20181;-57
2023/12/23 15:06:51;;;;;;;2.43;1.40;;;;;;;;;;5029294;28;20308;-56
2023/12/23 15:09:17;;;;;;;2.90;1.67;;;;;;;;;;5029733;28;20173;-57
2023/12/23 15:11:43;;;;;;;1.80;1.40;;;;;;;;;;5029689;28;20189;-58
2023/12/23 15:14:10;;;;;;;2.87;1.60;;;;;;;;;;5029452;28;20267;-56
2023/12/23 15:16:36;;;;;;;4.20;1.50;;;;;;;;;;5028974;28;20716;-57